sensor_id;sensor_type;location;lat;lon;timestamp;P1;durP1;ratioP1;P2;durP2;ratioP2
67344;SDS011;54230;52.402;6.276;2022-10-03T00:00:01;15.2;;;2.7;;
67344;SDS011;54230;52.402;6.276;2022-10-03T00:05:04;13.9;;;2.8;;
67344;SDS011;54230;52.402;6.276;2022-10-03T00:10:02;12.2;;;2.7;;
67344;SDS011;54230;52.402;6.276;2022-10-03T00:15:00;17.7;;;2.9;;
67344;SDS011;54230;52.402;6.276;2022-10-03T00:20:02;11.8;;;2.6;;
67344;SDS011;54230;52.402;6.276;2022-10-03T00:25:02;11.6;;;2.7;;
67344;SDS011;54230;52.402;6.276;2022-10-03T00:30:01;15.6;;;2.8;;
67344;SDS011;54230;52.402;6.276;2022-10-03T00:35:04;11.8;;;3.0;;
67344;SDS011;54230;52.402;6.276;2022-10-03T00:45:08;12.7;;;2.9;;
67344;SDS011;54230;52.402;6.276;2022-10-03T00:55:03;12.1;;;2.6;;
67344;SDS011;54230;52.402;6.276;2022-10-03T01:00:03;14.8;;;2.7;;
67344;SDS011;54230;52.402;6.276;2022-10-03T01:05:02;12.5;;;3.0;;
67344;SDS011;54230;52.402;6.276;2022-10-03T01:10:02;14.1;;;3.0;;
67344;SDS011;54230;52.402;6.276;2022-10-03T01:15:06;18.5;;;3.0;;
67344;SDS011;54230;52.402;6.276;2022-10-03T01:20:04;15.7;;;3.0;;
67344;SDS011;54230;52.402;6.276;2022-10-03T01:25:03;13.5;;;2.7;;
67344;SDS011;54230;52.402;6.276;2022-10-03T01:30:00;12.6;;;2.9;;
67344;SDS011;54230;52.402;6.276;2022-10-03T01:35:03;13.5;;;2.8;;
67344;SDS011;54230;52.402;6.276;2022-10-03T01:40:02;13.1;;;2.7;;
67344;SDS011;54230;52.402;6.276;2022-10-03T01:45:02;11.3;;;2.8;;
67344;SDS011;54230;52.402;6.276;2022-10-03T01:50:01;11.5;;;2.4;;
67344;SDS011;54230;52.402;6.276;2022-10-03T01:55:02;11.2;;;2.6;;
67344;SDS011;54230;52.402;6.276;2022-10-03T02:00:00;10.6;;;2.6;;
67344;SDS011;54230;52.402;6.276;2022-10-03T02:05:02;15.1;;;2.6;;
67344;SDS011;54230;52.402;6.276;2022-10-03T02:10:02;12.4;;;2.5;;
67344;SDS011;54230;52.402;6.276;2022-10-03T02:15:00;9.6;;;2.5;;
67344;SDS011;54230;52.402;6.276;2022-10-03T02:20:02;9.8;;;2.3;;
67344;SDS011;54230;52.402;6.276;2022-10-03T02:25:04;12.9;;;2.7;;
67344;SDS011;54230;52.402;6.276;2022-10-03T02:40:08;10.7;;;2.7;;
67344;SDS011;54230;52.402;6.276;2022-10-03T02:45:07;13.9;;;2.9;;
67344;SDS011;54230;52.402;6.276;2022-10-03T02:50:07;10.7;;;2.6;;
67344;SDS011;54230;52.402;6.276;2022-10-03T03:00:03;12.5;;;3.1;;
67344;SDS011;54230;52.402;6.276;2022-10-03T03:05:06;12.2;;;2.7;;
67344;SDS011;54230;52.402;6.276;2022-10-03T03:10:06;13.0;;;2.7;;
67344;SDS011;54230;52.402;6.276;2022-10-03T03:15:06;12.1;;;2.8;;
67344;SDS011;54230;52.402;6.276;2022-10-03T03:20:06;13.1;;;2.8;;
67344;SDS011;54230;52.402;6.276;2022-10-03T03:25:04;12.6;;;2.8;;
67344;SDS011;54230;52.402;6.276;2022-10-03T03:30:01;15.9;;;3.1;;
67344;SDS011;54230;52.402;6.276;2022-10-03T03:35:04;10.7;;;2.8;;
67344;SDS011;54230;52.402;6.276;2022-10-03T03:40:03;16.0;;;3.1;;
67344;SDS011;54230;52.402;6.276;2022-10-03T03:45:04;13.2;;;2.7;;
67344;SDS011;54230;52.402;6.276;2022-10-03T03:50:05;10.8;;;3.2;;
67344;SDS011;54230;52.402;6.276;2022-10-03T03:55:03;15.1;;;3.3;;
67344;SDS011;54230;52.402;6.276;2022-10-03T04:00:02;14.6;;;3.3;;
67344;SDS011;54230;52.402;6.276;2022-10-03T04:05:04;13.2;;;3.0;;
67344;SDS011;54230;52.402;6.276;2022-10-03T04:10:04;10.3;;;3.0;;
67344;SDS011;54230;52.402;6.276;2022-10-03T04:15:04;12.3;;;3.2;;
67344;SDS011;54230;52.402;6.276;2022-10-03T04:20:02;13.8;;;3.2;;
67344;SDS011;54230;52.402;6.276;2022-10-03T04:25:04;9.7;;;2.8;;
67344;SDS011;54230;52.402;6.276;2022-10-03T04:30:02;13.2;;;3.3;;
67344;SDS011;54230;52.402;6.276;2022-10-03T04:35:05;12.0;;;3.4;;
67344;SDS011;54230;52.402;6.276;2022-10-03T04:40:05;10.6;;;3.4;;
67344;SDS011;54230;52.402;6.276;2022-10-03T04:45:03;14.2;;;3.0;;
67344;SDS011;54230;52.402;6.276;2022-10-03T04:50:01;11.6;;;3.1;;
67344;SDS011;54230;52.402;6.276;2022-10-03T04:55:01;12.4;;;3.3;;
67344;SDS011;54230;52.402;6.276;2022-10-03T05:00:03;12.4;;;3.2;;
67344;SDS011;54230;52.402;6.276;2022-10-03T05:05:06;12.8;;;3.3;;
67344;SDS011;54230;52.402;6.276;2022-10-03T05:10:01;15.0;;;3.4;;
67344;SDS011;54230;52.402;6.276;2022-10-03T05:15:04;11.5;;;3.3;;
67344;SDS011;54230;52.402;6.276;2022-10-03T05:20:03;11.0;;;3.5;;
67344;SDS011;54230;52.402;6.276;2022-10-03T05:25:01;12.0;;;3.3;;
67344;SDS011;54230;52.402;6.276;2022-10-03T05:30:01;10.9;;;3.4;;
67344;SDS011;54230;52.402;6.276;2022-10-03T05:35:05;13.1;;;3.3;;
67344;SDS011;54230;52.402;6.276;2022-10-03T05:40:00;13.5;;;3.6;;
67344;SDS011;54230;52.402;6.276;2022-10-03T05:45:01;9.6;;;3.6;;
67344;SDS011;54230;52.402;6.276;2022-10-03T05:55:03;10.0;;;3.3;;
67344;SDS011;54230;52.402;6.276;2022-10-03T06:00:04;16.1;;;3.4;;
67344;SDS011;54230;52.402;6.276;2022-10-03T06:05:01;10.9;;;3.1;;
67344;SDS011;54230;52.402;6.276;2022-10-03T06:15:06;10.7;;;3.1;;
67344;SDS011;54230;52.402;6.276;2022-10-03T06:20:01;16.0;;;4.0;;
67344;SDS011;54230;52.402;6.276;2022-10-03T06:25:06;13.3;;;3.9;;
67344;SDS011;54230;52.402;6.276;2022-10-03T06:30:04;10.0;;;3.3;;
67344;SDS011;54230;52.402;6.276;2022-10-03T06:35:09;13.9;;;3.9;;
67344;SDS011;54230;52.402;6.276;2022-10-03T06:40:08;11.2;;;3.7;;
67344;SDS011;54230;52.402;6.276;2022-10-03T06:55:06;15.0;;;3.5;;
67344;SDS011;54230;52.402;6.276;2022-10-03T07:00:02;11.9;;;3.3;;
67344;SDS011;54230;52.402;6.276;2022-10-03T07:10:02;14.0;;;3.6;;
67344;SDS011;54230;52.402;6.276;2022-10-03T07:15:10;11.2;;;3.4;;
67344;SDS011;54230;52.402;6.276;2022-10-03T07:20:06;12.5;;;3.3;;
67344;SDS011;54230;52.402;6.276;2022-10-03T07:25:08;12.5;;;3.4;;
67344;SDS011;54230;52.402;6.276;2022-10-03T07:30:05;15.2;;;3.1;;
67344;SDS011;54230;52.402;6.276;2022-10-03T07:40:04;14.5;;;3.4;;
67344;SDS011;54230;52.402;6.276;2022-10-03T07:50:03;13.2;;;3.3;;
67344;SDS011;54230;52.402;6.276;2022-10-03T07:55:06;13.5;;;3.2;;
67344;SDS011;54230;52.402;6.276;2022-10-03T08:00:09;15.7;;;3.3;;
67344;SDS011;54230;52.402;6.276;2022-10-03T08:05:04;13.2;;;2.9;;
67344;SDS011;54230;52.402;6.276;2022-10-03T08:10:02;9.9;;;2.6;;
67344;SDS011;54230;52.402;6.276;2022-10-03T08:15:02;10.6;;;2.9;;
67344;SDS011;54230;52.402;6.276;2022-10-03T08:20:06;15.1;;;2.9;;
67344;SDS011;54230;52.402;6.276;2022-10-03T08:25:06;11.6;;;2.9;;
67344;SDS011;54230;52.402;6.276;2022-10-03T08:30:03;11.4;;;2.7;;
67344;SDS011;54230;52.402;6.276;2022-10-03T09:00:02;10.3;;;2.3;;
67344;SDS011;54230;52.402;6.276;2022-10-03T09:05:04;10.1;;;2.1;;
67344;SDS011;54230;52.402;6.276;2022-10-03T09:10:10;8.8;;;1.9;;
67344;SDS011;54230;52.402;6.276;2022-10-03T09:15:04;13.6;;;2.2;;
67344;SDS011;54230;52.402;6.276;2022-10-03T09:30:05;9.9;;;2.0;;
67344;SDS011;54230;52.402;6.276;2022-10-03T09:35:07;8.0;;;1.9;;
67344;SDS011;54230;52.402;6.276;2022-10-03T09:55:04;6.8;;;1.5;;
67344;SDS011;54230;52.402;6.276;2022-10-03T10:00:02;7.4;;;1.3;;
67344;SDS011;54230;52.402;6.276;2022-10-03T10:05:05;9.6;;;1.5;;
67344;SDS011;54230;52.402;6.276;2022-10-03T10:20:04;4.8;;;1.3;;
67344;SDS011;54230;52.402;6.276;2022-10-03T10:25:05;8.4;;;1.3;;
67344;SDS011;54230;52.402;6.276;2022-10-03T10:30:07;9.4;;;1.3;;
67344;SDS011;54230;52.402;6.276;2022-10-03T10:35:07;9.0;;;1.3;;
67344;SDS011;54230;52.402;6.276;2022-10-03T10:40:05;6.6;;;1.3;;
67344;SDS011;54230;52.402;6.276;2022-10-03T10:50:05;5.7;;;1.2;;
67344;SDS011;54230;52.402;6.276;2022-10-03T10:55:24;7.6;;;1.1;;
67344;SDS011;54230;52.402;6.276;2022-10-03T11:25:08;6.3;;;1.2;;
67344;SDS011;54230;52.402;6.276;2022-10-03T11:30:02;8.6;;;1.0;;
67344;SDS011;54230;52.402;6.276;2022-10-03T11:40:03;7.1;;;1.0;;
67344;SDS011;54230;52.402;6.276;2022-10-03T11:45:00;7.3;;;1.3;;
67344;SDS011;54230;52.402;6.276;2022-10-03T11:50:09;6.9;;;1.2;;
67344;SDS011;54230;52.402;6.276;2022-10-03T11:55:04;7.8;;;1.2;;
67344;SDS011;54230;52.402;6.276;2022-10-03T12:00:00;6.7;;;1.0;;
67344;SDS011;54230;52.402;6.276;2022-10-03T12:05:00;5.4;;;1.1;;
67344;SDS011;54230;52.402;6.276;2022-10-03T12:10:02;6.3;;;1.0;;
67344;SDS011;54230;52.402;6.276;2022-10-03T12:15:02;7.1;;;1.1;;
67344;SDS011;54230;52.402;6.276;2022-10-03T12:20:01;4.9;;;1.1;;
67344;SDS011;54230;52.402;6.276;2022-10-03T12:25:00;6.1;;;1.2;;
67344;SDS011;54230;52.402;6.276;2022-10-03T12:30:02;5.7;;;1.2;;
67344;SDS011;54230;52.402;6.276;2022-10-03T12:35:02;7.2;;;1.4;;
67344;SDS011;54230;52.402;6.276;2022-10-03T12:40:01;8.2;;;1.1;;
67344;SDS011;54230;52.402;6.276;2022-10-03T12:45:01;7.3;;;1.4;;
67344;SDS011;54230;52.402;6.276;2022-10-03T12:50:01;7.9;;;1.3;;
67344;SDS011;54230;52.402;6.276;2022-10-03T12:55:04;8.6;;;1.2;;
67344;SDS011;54230;52.402;6.276;2022-10-03T13:00:01;5.7;;;1.2;;
67344;SDS011;54230;52.402;6.276;2022-10-03T13:10:01;6.6;;;1.3;;
67344;SDS011;54230;52.402;6.276;2022-10-03T13:20:00;5.8;;;1.2;;
67344;SDS011;54230;52.402;6.276;2022-10-03T13:25:00;7.1;;;1.0;;
67344;SDS011;54230;52.402;6.276;2022-10-03T13:30:02;6.8;;;1.2;;
67344;SDS011;54230;52.402;6.276;2022-10-03T13:35:02;7.7;;;1.2;;
67344;SDS011;54230;52.402;6.276;2022-10-03T13:40:01;5.8;;;0.9;;
67344;SDS011;54230;52.402;6.276;2022-10-03T13:45:00;5.9;;;1.0;;
67344;SDS011;54230;52.402;6.276;2022-10-03T13:50:00;7.4;;;1.3;;
67344;SDS011;54230;52.402;6.276;2022-10-03T13:55:04;6.9;;;1.3;;
67344;SDS011;54230;52.402;6.276;2022-10-03T14:00:00;6.8;;;1.3;;
67344;SDS011;54230;52.402;6.276;2022-10-03T14:05:04;8.2;;;1.4;;
67344;SDS011;54230;52.402;6.276;2022-10-03T14:15:04;7.3;;;1.4;;
67344;SDS011;54230;52.402;6.276;2022-10-03T14:20:03;6.8;;;1.4;;
67344;SDS011;54230;52.402;6.276;2022-10-03T14:25:04;6.5;;;1.1;;
67344;SDS011;54230;52.402;6.276;2022-10-03T14:30:01;6.3;;;1.3;;
67344;SDS011;54230;52.402;6.276;2022-10-03T14:35:02;8.4;;;1.8;;
67344;SDS011;54230;52.402;6.276;2022-10-03T14:40:05;7.3;;;1.4;;
67344;SDS011;54230;52.402;6.276;2022-10-03T14:45:00;7.5;;;1.4;;
67344;SDS011;54230;52.402;6.276;2022-10-03T14:50:00;7.5;;;1.4;;
67344;SDS011;54230;52.402;6.276;2022-10-03T14:55:02;6.8;;;1.5;;
67344;SDS011;54230;52.402;6.276;2022-10-03T15:00:00;7.6;;;1.4;;
67344;SDS011;54230;52.402;6.276;2022-10-03T15:05:01;6.3;;;1.3;;
67344;SDS011;54230;52.402;6.276;2022-10-03T15:10:00;7.6;;;1.6;;
67344;SDS011;54230;52.402;6.276;2022-10-03T15:15:00;7.3;;;1.5;;
67344;SDS011;54230;52.402;6.276;2022-10-03T15:20:00;7.2;;;1.6;;
67344;SDS011;54230;52.402;6.276;2022-10-03T15:25:02;11.5;;;1.7;;
67344;SDS011;54230;52.402;6.276;2022-10-03T15:30:00;6.4;;;1.5;;
67344;SDS011;54230;52.402;6.276;2022-10-03T15:35:00;6.9;;;1.8;;
67344;SDS011;54230;52.402;6.276;2022-10-03T15:40:01;8.1;;;1.5;;
67344;SDS011;54230;52.402;6.276;2022-10-03T15:45:01;7.3;;;1.7;;
67344;SDS011;54230;52.402;6.276;2022-10-03T15:50:00;5.9;;;1.4;;
67344;SDS011;54230;52.402;6.276;2022-10-03T15:55:01;7.0;;;1.5;;
67344;SDS011;54230;52.402;6.276;2022-10-03T16:00:00;8.0;;;1.7;;
67344;SDS011;54230;52.402;6.276;2022-10-03T16:05:00;7.2;;;1.7;;
67344;SDS011;54230;52.402;6.276;2022-10-03T16:10:03;5.1;;;1.4;;
67344;SDS011;54230;52.402;6.276;2022-10-03T16:15:03;7.8;;;1.7;;
67344;SDS011;54230;52.402;6.276;2022-10-03T16:20:02;7.5;;;1.6;;
67344;SDS011;54230;52.402;6.276;2022-10-03T16:25:01;7.0;;;1.7;;
67344;SDS011;54230;52.402;6.276;2022-10-03T16:30:14;7.6;;;1.7;;
67344;SDS011;54230;52.402;6.276;2022-10-03T16:35:00;6.0;;;1.7;;
67344;SDS011;54230;52.402;6.276;2022-10-03T16:40:01;7.6;;;1.7;;
67344;SDS011;54230;52.402;6.276;2022-10-03T16:45:00;7.4;;;1.5;;
67344;SDS011;54230;52.402;6.276;2022-10-03T16:50:00;6.5;;;1.7;;
67344;SDS011;54230;52.402;6.276;2022-10-03T16:55:01;9.1;;;2.0;;
67344;SDS011;54230;52.402;6.276;2022-10-03T17:00:00;9.5;;;1.8;;
67344;SDS011;54230;52.402;6.276;2022-10-03T17:05:01;10.9;;;2.1;;
67344;SDS011;54230;52.402;6.276;2022-10-03T17:10:00;8.0;;;2.1;;
67344;SDS011;54230;52.402;6.276;2022-10-03T17:15:01;9.0;;;2.8;;
67344;SDS011;54230;52.402;6.276;2022-10-03T17:20:00;8.1;;;2.6;;
67344;SDS011;54230;52.402;6.276;2022-10-03T17:25:00;8.0;;;2.3;;
67344;SDS011;54230;52.402;6.276;2022-10-03T17:30:00;10.9;;;2.6;;
67344;SDS011;54230;52.402;6.276;2022-10-03T17:35:01;11.7;;;2.8;;
67344;SDS011;54230;52.402;6.276;2022-10-03T17:40:00;8.9;;;2.7;;
67344;SDS011;54230;52.402;6.276;2022-10-03T17:45:02;10.2;;;2.7;;
67344;SDS011;54230;52.402;6.276;2022-10-03T17:50:02;7.8;;;2.9;;
67344;SDS011;54230;52.402;6.276;2022-10-03T17:55:01;8.8;;;2.8;;
67344;SDS011;54230;52.402;6.276;2022-10-03T18:00:00;8.2;;;3.0;;
67344;SDS011;54230;52.402;6.276;2022-10-03T18:05:02;10.7;;;2.9;;
67344;SDS011;54230;52.402;6.276;2022-10-03T18:10:00;9.3;;;3.0;;
67344;SDS011;54230;52.402;6.276;2022-10-03T18:15:06;11.4;;;2.9;;
67344;SDS011;54230;52.402;6.276;2022-10-03T18:20:04;9.9;;;2.6;;
67344;SDS011;54230;52.402;6.276;2022-10-03T18:25:03;7.5;;;2.8;;
67344;SDS011;54230;52.402;6.276;2022-10-03T18:30:00;9.6;;;2.8;;
67344;SDS011;54230;52.402;6.276;2022-10-03T18:35:02;9.4;;;2.6;;
67344;SDS011;54230;52.402;6.276;2022-10-03T18:40:00;8.9;;;2.5;;
67344;SDS011;54230;52.402;6.276;2022-10-03T18:45:00;11.4;;;3.0;;
67344;SDS011;54230;52.402;6.276;2022-10-03T18:50:01;9.7;;;2.9;;
67344;SDS011;54230;52.402;6.276;2022-10-03T18:55:00;11.3;;;3.1;;
67344;SDS011;54230;52.402;6.276;2022-10-03T19:00:00;11.6;;;2.9;;
67344;SDS011;54230;52.402;6.276;2022-10-03T19:05:01;9.1;;;3.0;;
67344;SDS011;54230;52.402;6.276;2022-10-03T19:10:03;9.1;;;2.9;;
67344;SDS011;54230;52.402;6.276;2022-10-03T19:15:01;11.7;;;3.5;;
67344;SDS011;54230;52.402;6.276;2022-10-03T19:20:10;11.2;;;3.4;;
67344;SDS011;54230;52.402;6.276;2022-10-03T19:25:00;10.1;;;3.5;;
67344;SDS011;54230;52.402;6.276;2022-10-03T19:30:00;13.9;;;4.3;;
67344;SDS011;54230;52.402;6.276;2022-10-03T19:35:02;12.0;;;3.8;;
67344;SDS011;54230;52.402;6.276;2022-10-03T19:40:00;12.6;;;4.0;;
67344;SDS011;54230;52.402;6.276;2022-10-03T19:45:00;13.0;;;4.1;;
67344;SDS011;54230;52.402;6.276;2022-10-03T19:50:02;12.0;;;4.2;;
67344;SDS011;54230;52.402;6.276;2022-10-03T19:55:01;11.6;;;4.4;;
67344;SDS011;54230;52.402;6.276;2022-10-03T20:00:00;12.7;;;4.7;;
67344;SDS011;54230;52.402;6.276;2022-10-03T20:05:00;15.5;;;4.9;;
67344;SDS011;54230;52.402;6.276;2022-10-03T20:10:02;11.5;;;4.5;;
67344;SDS011;54230;52.402;6.276;2022-10-03T20:15:00;12.4;;;4.2;;
67344;SDS011;54230;52.402;6.276;2022-10-03T20:20:00;12.6;;;4.5;;
67344;SDS011;54230;52.402;6.276;2022-10-03T20:25:00;15.3;;;5.1;;
67344;SDS011;54230;52.402;6.276;2022-10-03T20:30:02;15.4;;;4.9;;
67344;SDS011;54230;52.402;6.276;2022-10-03T20:35:00;12.5;;;4.7;;
67344;SDS011;54230;52.402;6.276;2022-10-03T20:40:02;12.8;;;5.1;;
67344;SDS011;54230;52.402;6.276;2022-10-03T20:45:00;14.1;;;5.3;;
67344;SDS011;54230;52.402;6.276;2022-10-03T20:50:00;15.6;;;5.6;;
67344;SDS011;54230;52.402;6.276;2022-10-03T20:55:01;14.2;;;5.6;;
67344;SDS011;54230;52.402;6.276;2022-10-03T21:00:03;15.4;;;5.6;;
67344;SDS011;54230;52.402;6.276;2022-10-03T21:05:00;12.9;;;5.5;;
67344;SDS011;54230;52.402;6.276;2022-10-03T21:10:01;14.9;;;5.5;;
67344;SDS011;54230;52.402;6.276;2022-10-03T21:15:01;17.4;;;5.9;;
67344;SDS011;54230;52.402;6.276;2022-10-03T21:20:00;17.1;;;6.2;;
67344;SDS011;54230;52.402;6.276;2022-10-03T21:25:00;15.5;;;6.3;;
67344;SDS011;54230;52.402;6.276;2022-10-03T21:30:01;16.0;;;6.0;;
67344;SDS011;54230;52.402;6.276;2022-10-03T21:35:00;15.8;;;6.3;;
67344;SDS011;54230;52.402;6.276;2022-10-03T21:40:04;13.3;;;6.2;;
67344;SDS011;54230;52.402;6.276;2022-10-03T21:45:04;17.1;;;6.2;;
67344;SDS011;54230;52.402;6.276;2022-10-03T21:50:00;14.7;;;6.7;;
67344;SDS011;54230;52.402;6.276;2022-10-03T21:55:06;17.6;;;6.6;;
67344;SDS011;54230;52.402;6.276;2022-10-03T22:00:03;17.6;;;6.3;;
67344;SDS011;54230;52.402;6.276;2022-10-03T22:05:01;14.5;;;6.4;;
67344;SDS011;54230;52.402;6.276;2022-10-03T22:10:00;16.8;;;6.3;;
67344;SDS011;54230;52.402;6.276;2022-10-03T22:15:02;16.4;;;6.8;;
67344;SDS011;54230;52.402;6.276;2022-10-03T22:20:04;14.3;;;6.5;;
67344;SDS011;54230;52.402;6.276;2022-10-03T22:25:05;16.1;;;6.5;;
67344;SDS011;54230;52.402;6.276;2022-10-03T22:30:00;17.6;;;6.4;;
67344;SDS011;54230;52.402;6.276;2022-10-03T22:35:03;14.0;;;6.6;;
67344;SDS011;54230;52.402;6.276;2022-10-03T22:40:00;15.1;;;6.8;;
67344;SDS011;54230;52.402;6.276;2022-10-03T22:45:00;14.3;;;6.4;;
67344;SDS011;54230;52.402;6.276;2022-10-03T22:50:00;13.3;;;6.4;;
67344;SDS011;54230;52.402;6.276;2022-10-03T22:55:00;14.5;;;5.9;;
67344;SDS011;54230;52.402;6.276;2022-10-03T23:00:00;14.6;;;6.2;;
67344;SDS011;54230;52.402;6.276;2022-10-03T23:05:00;16.9;;;6.3;;
67344;SDS011;54230;52.402;6.276;2022-10-03T23:10:04;19.2;;;6.5;;
67344;SDS011;54230;52.402;6.276;2022-10-03T23:15:00;14.8;;;6.7;;
67344;SDS011;54230;52.402;6.276;2022-10-03T23:20:01;16.7;;;7.1;;
67344;SDS011;54230;52.402;6.276;2022-10-03T23:25:00;14.4;;;7.1;;
67344;SDS011;54230;52.402;6.276;2022-10-03T23:35:11;17.0;;;7.6;;
67344;SDS011;54230;52.402;6.276;2022-10-03T23:45:01;17.0;;;7.2;;
67344;SDS011;54230;52.402;6.276;2022-10-03T23:50:01;20.1;;;7.7;;
67344;SDS011;54230;52.402;6.276;2022-10-03T23:55:00;16.5;;;7.1;;
